createdAt,value
2022-08-05T00:02:23.053Z,18.10
2022-08-05T00:04:55.604Z,18.10
2022-08-05T00:07:59.254Z,18.00
2022-08-05T00:10:11.458Z,17.90
2022-08-05T00:12:55.765Z,17.90
2022-08-05T00:15:55.952Z,18.10
2022-08-05T00:18:21.700Z,18.00
2022-08-05T00:20:51.697Z,18.10
2022-08-05T00:23:44.685Z,18.10
2022-08-05T00:26:07.325Z,18.00
2022-08-05T00:28:34.943Z,18.00
2022-08-05T00:31:04.427Z,18.00
2022-08-05T00:34:55.635Z,18.00
2022-08-05T00:37:10.959Z,17.90
2022-08-05T00:39:13.663Z,17.90
2022-08-05T00:41:51.824Z,17.80
2022-08-05T00:44:20.804Z,17.70
2022-08-05T00:46:54.129Z,17.70
2022-08-05T00:49:44.725Z,17.80
2022-08-05T00:52:28.647Z,18.00
2022-08-05T00:54:56.963Z,17.80
2022-08-05T00:57:38.360Z,17.80
2022-08-05T01:00:13.493Z,17.60
2022-08-05T01:02:40.879Z,17.60
2022-08-05T01:05:10.067Z,17.70
2022-08-05T01:07:37.624Z,17.80
2022-08-05T01:10:52.474Z,17.70
2022-08-05T01:13:59.602Z,17.40
2022-08-05T01:16:55.011Z,17.50
2022-08-05T01:19:46.177Z,17.40
2022-08-05T01:22:23.945Z,17.30
2022-08-05T01:24:54.684Z,17.30
2022-08-05T01:27:55.271Z,17.30
2022-08-05T01:30:34.340Z,17.30
2022-08-05T01:33:08.294Z,17.30
2022-08-05T01:35:51.873Z,17.20
2022-08-05T01:38:27.190Z,17.40
2022-08-05T01:40:58.865Z,17.30
2022-08-05T01:43:26.845Z,17.20
2022-08-05T01:45:56.780Z,17.20
2022-08-05T01:48:26.032Z,17.10
2022-08-05T01:50:54.564Z,17.10
2022-08-05T01:53:54.777Z,17.00
2022-08-05T01:56:10.479Z,17.00
2022-08-05T01:58:45.217Z,16.90
2022-08-05T02:01:14.595Z,17.00
2022-08-05T02:03:48.786Z,17.00
2022-08-05T02:06:37.464Z,17.00
2022-08-05T02:09:05.230Z,17.10
2022-08-05T02:11:51.357Z,17.10
2022-08-05T02:14:29.473Z,17.20
2022-08-05T02:17:07.451Z,17.00
2022-08-05T02:19:47.010Z,16.80
2022-08-05T02:22:25.642Z,16.60
2022-08-05T02:25:00.071Z,16.80
2022-08-05T02:27:30.026Z,16.90
2022-08-05T02:30:15.686Z,16.80
2022-08-05T02:32:44.609Z,16.90
2022-08-05T02:35:14.623Z,16.70
2022-08-05T02:38:53.469Z,16.70
2022-08-05T02:41:22.803Z,16.70
2022-08-05T02:44:05.863Z,16.60
2022-08-05T02:46:53.093Z,16.60
2022-08-05T02:49:36.625Z,16.50
2022-08-05T02:52:07.952Z,16.60
2022-08-05T02:54:37.596Z,16.40
2022-08-05T02:58:09.767Z,16.30
2022-08-05T02:59:59.393Z,16.40
2022-08-05T03:02:32.192Z,16.40
2022-08-05T03:04:59.767Z,16.50
2022-08-05T03:07:59.449Z,16.40
2022-08-05T03:10:16.112Z,16.20
2022-08-05T03:12:52.474Z,16.20
2022-08-05T03:15:20.053Z,16.20
2022-08-05T03:17:47.459Z,16.20
2022-08-05T03:20:14.995Z,16.30
2022-08-05T03:22:46.964Z,16.30
2022-08-05T03:25:33.176Z,16.20
2022-08-05T03:28:10.253Z,16.10
2022-08-05T03:30:42.269Z,16.10
2022-08-05T03:33:10.011Z,15.90
2022-08-05T03:35:41.506Z,16.00
2022-08-05T03:38:14.371Z,16.10
2022-08-05T03:40:47.547Z,16.00
2022-08-05T03:44:08.667Z,15.90
2022-08-05T03:46:04.869Z,15.80
2022-08-05T03:48:35.348Z,15.90
2022-08-05T03:52:34.929Z,15.90
2022-08-05T03:56:01.909Z,16.10
2022-08-05T03:57:16.541Z,16.10
2022-08-05T03:59:54.677Z,15.90
2022-08-05T04:02:38.327Z,15.90
2022-08-05T04:05:12.682Z,15.90
2022-08-05T04:07:57.069Z,15.90
2022-08-05T04:10:33.360Z,15.80
2022-08-05T04:13:05.842Z,15.80
2022-08-05T04:15:36.076Z,15.70
2022-08-05T04:18:10.248Z,15.60
2022-08-05T04:20:56.303Z,15.80
2022-08-05T04:24:06.068Z,15.80
2022-08-05T04:26:13.794Z,15.90
2022-08-05T04:28:50.768Z,16.00
2022-08-05T04:31:18.694Z,16.10
2022-08-05T04:34:18.238Z,16.30
2022-08-05T04:36:49.506Z,16.30
2022-08-05T04:39:18.523Z,16.30
2022-08-05T04:41:48.193Z,16.30
2022-08-05T04:44:21.518Z,16.30
2022-08-05T04:46:59.118Z,16.20
2022-08-05T04:49:38.990Z,16.40
2022-08-05T04:52:15.384Z,16.30
2022-08-05T04:54:42.781Z,16.30
2022-08-05T04:57:10.107Z,16.50
2022-08-05T04:59:39.118Z,16.70
2022-08-05T05:02:36.497Z,16.80
2022-08-05T05:05:02.706Z,16.90
2022-08-05T05:07:32.873Z,17.00
2022-08-05T05:10:06.385Z,17.00
2022-08-05T05:12:34.079Z,17.10
2022-08-05T05:15:05.816Z,17.30
2022-08-05T05:17:56.989Z,17.30
2022-08-05T05:20:28.807Z,17.40
2022-08-05T05:22:57.711Z,17.40
2022-08-05T05:25:32.801Z,17.60
2022-08-05T05:28:09.287Z,17.70
2022-08-05T05:30:36.970Z,17.90
2022-08-05T05:33:16.602Z,18.10
2022-08-05T05:35:45.827Z,18.20
2022-08-05T05:38:14.202Z,18.40
2022-08-05T05:40:49.979Z,18.40
2022-08-05T05:43:21.802Z,18.60
2022-08-05T05:45:55.593Z,18.60
2022-08-05T05:48:27.702Z,18.60
2022-08-05T05:50:55.308Z,18.60
2022-08-05T05:53:22.974Z,18.80
2022-08-05T05:55:52.328Z,19.00
2022-08-05T05:58:30.304Z,19.10
2022-08-05T06:01:12.340Z,19.30
2022-08-05T06:04:00.300Z,19.50
2022-08-05T06:06:31.023Z,19.80
2022-08-05T06:09:01.069Z,20.50
2022-08-05T06:11:28.887Z,21.30
2022-08-05T06:13:56.909Z,22.10
2022-08-05T06:16:30.645Z,23.30
2022-08-05T06:19:01.214Z,23.80
2022-08-05T06:21:37.268Z,24.40
2022-08-05T06:24:11.390Z,25.20
2022-08-05T06:26:51.624Z,25.90
2022-08-05T06:29:25.525Z,26.70
2022-08-05T06:32:24.873Z,26.90
2022-08-05T06:35:15.279Z,26.90
2022-08-05T06:38:40.331Z,27.40
2022-08-05T06:41:14.560Z,27.60
2022-08-05T06:43:57.807Z,28.50
2022-08-05T06:46:29.784Z,28.90
2022-08-05T06:48:59.178Z,28.90
2022-08-05T06:51:30.126Z,28.60
2022-08-05T06:54:02.344Z,29.20
2022-08-05T06:56:34.162Z,29.50
2022-08-05T06:59:03.580Z,30.00
2022-08-05T07:01:36.043Z,30.10
2022-08-05T07:04:04.607Z,29.90
2022-08-05T07:06:32.230Z,29.90
2022-08-05T07:09:04.094Z,30.10
2022-08-05T07:11:33.192Z,30.00
2022-08-05T07:14:28.868Z,30.40
2022-08-05T07:18:01.906Z,31.20
2022-08-05T07:22:37.027Z,30.70
2022-08-05T07:25:23.980Z,30.30
2022-08-05T07:27:59.702Z,30.00
2022-08-05T07:30:38.711Z,30.00
2022-08-05T07:33:09.321Z,29.60
2022-08-05T07:36:02.812Z,29.70
2022-08-05T07:38:33.741Z,29.60
2022-08-05T07:42:09.649Z,29.40
2022-08-05T07:43:58.512Z,29.30
2022-08-05T07:46:27.283Z,29.20
2022-08-05T07:49:01.747Z,29.40
2022-08-05T07:51:40.882Z,29.50
2022-08-05T07:54:16.272Z,29.60
2022-08-05T07:57:13.594Z,29.50
2022-08-05T07:59:39.880Z,29.50
2022-08-05T08:02:16.732Z,29.60
2022-08-05T08:04:46.700Z,30.00
2022-08-05T08:07:15.093Z,30.10
2022-08-05T08:09:43.467Z,30.20
2022-08-05T08:12:30.632Z,30.30
2022-08-05T08:15:02.084Z,30.20
2022-08-05T08:17:30.904Z,30.60
2022-08-05T08:20:21.994Z,30.50
2022-08-05T08:22:52.492Z,30.60
2022-08-05T08:25:26.434Z,30.70
2022-08-05T08:28:03.401Z,30.70
2022-08-05T08:30:40.882Z,30.70
2022-08-05T08:33:16.464Z,30.90
2022-08-05T08:35:52.414Z,30.60
2022-08-05T08:38:35.238Z,30.60
2022-08-05T08:41:07.747Z,30.60
2022-08-05T08:45:19.601Z,30.70
2022-08-05T08:46:29.112Z,30.80
2022-08-05T08:49:07.777Z,31.00
2022-08-05T08:52:05.999Z,31.10
2022-08-05T08:54:36.731Z,31.30
2022-08-05T08:57:11.344Z,31.30
2022-08-05T08:59:41.867Z,31.30
2022-08-05T09:02:16.647Z,31.30
2022-08-05T09:04:58.202Z,31.30
2022-08-05T09:07:40.114Z,31.30
2022-08-05T09:10:19.544Z,31.40
2022-08-05T09:12:50.881Z,31.30
2022-08-05T09:15:21.095Z,31.30
2022-08-05T09:17:53.087Z,31.40
2022-08-05T09:20:36.587Z,31.40
2022-08-05T09:23:09.482Z,31.40
2022-08-05T09:26:01.718Z,31.40
2022-08-05T09:28:32.564Z,31.70
2022-08-05T09:31:43.562Z,31.30
2022-08-05T09:34:06.296Z,31.20
2022-08-05T09:36:55.228Z,31.30
2022-08-05T09:39:39.275Z,31.10
2022-08-05T09:42:17.515Z,31.10
2022-08-05T09:44:56.393Z,31.40
2022-08-05T09:47:25.976Z,31.20
2022-08-05T09:50:02.036Z,31.50
2022-08-05T09:52:31.561Z,31.70
2022-08-05T09:55:56.107Z,31.60
2022-08-05T09:57:58.399Z,31.60
2022-08-05T10:00:26.740Z,31.60
2022-08-05T10:02:58.352Z,31.50
2022-08-05T10:05:28.760Z,31.60
2022-08-05T10:08:35.230Z,31.70
2022-08-05T10:10:50.343Z,31.70
2022-08-05T10:13:47.352Z,31.90
2022-08-05T10:16:41.918Z,31.70
2022-08-05T10:19:23.449Z,31.80
2022-08-05T10:21:59.516Z,32.10
2022-08-05T10:24:27.098Z,32.30
2022-08-05T10:27:00.519Z,32.30
2022-08-05T10:30:06.594Z,32.10
2022-08-05T10:32:51.791Z,32.20
2022-08-05T10:35:07.202Z,32.30
2022-08-05T10:37:37.255Z,32.40
2022-08-05T10:40:45.053Z,32.30
2022-08-05T10:43:46.982Z,32.30
2022-08-05T10:46:17.864Z,32.40
2022-08-05T10:48:57.012Z,32.60
2022-08-05T10:51:28.580Z,32.60
2022-08-05T10:54:01.924Z,32.50
2022-08-05T10:56:46.849Z,32.40
2022-08-05T11:00:03.154Z,32.40
2022-08-05T11:02:34.855Z,32.50
2022-08-05T11:05:04.561Z,32.60
2022-08-05T11:08:01.776Z,32.60
2022-08-05T11:10:27.616Z,32.70
2022-08-05T11:12:57.735Z,32.70
2022-08-05T11:16:01.081Z,32.80
2022-08-05T11:18:32.253Z,32.90
2022-08-05T11:21:00.429Z,32.70
2022-08-05T11:24:02.526Z,32.80
2022-08-05T11:26:28.671Z,32.80
2022-08-05T11:29:11.665Z,32.70
2022-08-05T11:31:58.166Z,32.60
2022-08-05T11:34:47.532Z,32.80
2022-08-05T11:38:30.350Z,32.60
2022-08-05T11:41:03.400Z,32.70
2022-08-05T11:44:06.777Z,32.90
2022-08-05T11:47:09.615Z,33.10
2022-08-05T11:49:28.380Z,33.00
2022-08-05T11:51:57.533Z,33.10
2022-08-05T11:54:33.165Z,32.80
2022-08-05T11:57:08.261Z,33.00
2022-08-05T11:59:50.778Z,33.10
2022-08-05T12:02:30.600Z,33.10
2022-08-05T12:05:00.821Z,33.10
2022-08-05T12:08:09.559Z,33.10
2022-08-05T12:10:21.010Z,33.10
2022-08-05T12:12:59.260Z,33.10
2022-08-05T12:15:35.829Z,32.90
2022-08-05T12:18:10.736Z,32.80
2022-08-05T12:20:39.560Z,32.60
2022-08-05T12:23:10.713Z,32.60
2022-08-05T12:25:56.889Z,32.60
2022-08-05T12:28:36.711Z,32.60
2022-08-05T12:31:04.762Z,32.70
2022-08-05T12:33:36.448Z,32.80
2022-08-05T12:36:07.937Z,32.80
2022-08-05T12:38:38.300Z,32.60
2022-08-05T12:41:14.219Z,32.60
2022-08-05T12:43:57.491Z,32.90
2022-08-05T12:46:31.403Z,32.80
2022-08-05T12:49:15.012Z,33.00
2022-08-05T12:52:12.115Z,33.10
2022-08-05T12:54:52.141Z,33.10
2022-08-05T12:57:19.742Z,32.90
2022-08-05T13:01:56.832Z,33.00
2022-08-05T13:02:43.068Z,33.20
2022-08-05T13:05:15.370Z,32.90
2022-08-05T13:08:00.605Z,33.10
2022-08-05T13:10:28.939Z,33.00
2022-08-05T13:12:58.220Z,33.10
2022-08-05T13:15:41.795Z,33.10
2022-08-05T13:18:20.069Z,33.20
2022-08-05T13:20:50.363Z,32.70
2022-08-05T13:23:22.521Z,32.90
2022-08-05T13:25:59.281Z,33.10
2022-08-05T13:28:28.031Z,33.30
2022-08-05T13:30:57.241Z,33.10
2022-08-05T13:34:21.274Z,33.10
2022-08-05T13:36:14.599Z,33.20
2022-08-05T13:38:43.063Z,33.30
2022-08-05T13:41:11.759Z,33.50
2022-08-05T13:43:45.723Z,33.60
2022-08-05T13:46:37.545Z,33.40
2022-08-05T13:49:11.866Z,33.50
2022-08-05T13:51:41.518Z,33.40
2022-08-05T13:54:15.426Z,33.30
2022-08-05T13:56:45.389Z,33.30
2022-08-05T13:59:24.429Z,33.30
2022-08-05T14:01:58.724Z,33.10
2022-08-05T14:04:51.065Z,33.10
2022-08-05T14:07:25.801Z,33.20
2022-08-05T14:10:12.164Z,33.20
2022-08-05T14:12:40.125Z,33.40
2022-08-05T14:16:05.574Z,33.50
2022-08-05T14:17:59.797Z,33.40
2022-08-05T14:20:31.580Z,33.50
2022-08-05T14:23:00.292Z,33.40
2022-08-05T14:25:30.142Z,33.40
2022-08-05T14:27:58.451Z,33.40
2022-08-05T14:30:26.589Z,33.40
2022-08-05T14:32:56.781Z,33.50
2022-08-05T14:35:37.050Z,33.30
2022-08-05T14:38:34.171Z,33.30
2022-08-05T14:41:07.781Z,33.40
2022-08-05T14:44:02.298Z,33.30
2022-08-05T14:46:29.717Z,33.30
2022-08-05T14:49:06.315Z,33.30
2022-08-05T14:51:35.272Z,33.20
2022-08-05T14:54:28.817Z,33.00
2022-08-05T14:56:51.047Z,33.10
2022-08-05T14:59:22.213Z,33.10
2022-08-05T15:01:50.489Z,33.10
2022-08-05T15:04:20.459Z,33.10
2022-08-05T15:06:50.867Z,33.10
2022-08-05T15:09:52.463Z,32.90
2022-08-05T15:12:09.019Z,33.00
2022-08-05T15:14:48.279Z,33.10
2022-08-05T15:17:47.053Z,33.10
2022-08-05T15:20:18.399Z,33.00
2022-08-05T15:22:52.390Z,33.10
2022-08-05T15:25:41.370Z,33.00
2022-08-05T15:28:13.357Z,32.80
2022-08-05T15:30:43.356Z,32.70
2022-08-05T15:33:11.750Z,32.60
2022-08-05T15:35:44.917Z,32.40
2022-08-05T15:38:35.599Z,32.30
2022-08-05T15:41:23.306Z,32.50
2022-08-05T15:43:48.524Z,32.60
2022-08-05T15:46:16.049Z,32.50
2022-08-05T15:48:52.449Z,32.30
2022-08-05T15:52:13.348Z,32.40
2022-08-05T15:54:15.286Z,32.20
2022-08-05T15:56:43.629Z,32.10
2022-08-05T15:59:20.001Z,32.00
2022-08-05T16:01:52.257Z,31.90
2022-08-05T16:04:25.241Z,32.00
2022-08-05T16:06:57.099Z,31.90
2022-08-05T16:09:25.586Z,31.90
2022-08-05T16:11:54.276Z,32.00
2022-08-05T16:14:22.762Z,31.80
2022-08-05T16:16:50.111Z,31.60
2022-08-05T16:19:25.434Z,31.50
2022-08-05T16:22:05.984Z,31.50
2022-08-05T16:24:41.347Z,31.60
2022-08-05T16:27:19.025Z,31.70
2022-08-05T16:29:50.804Z,31.60
2022-08-05T16:32:28.691Z,31.60
2022-08-05T16:34:58.901Z,31.60
2022-08-05T16:38:15.604Z,31.40
2022-08-05T16:40:28.901Z,31.50
2022-08-05T16:42:56.775Z,31.30
2022-08-05T16:46:03.825Z,31.30
2022-08-05T16:48:11.760Z,31.20
2022-08-05T16:50:53.477Z,31.20
2022-08-05T16:53:22.894Z,31.20
2022-08-05T16:56:00.884Z,31.20
2022-08-05T16:58:29.327Z,31.10
2022-08-05T17:00:57.493Z,30.90
2022-08-05T17:03:26.733Z,30.90
2022-08-05T17:05:59.445Z,30.90
2022-08-05T17:08:36.503Z,30.80
2022-08-05T17:11:17.029Z,30.80
2022-08-05T17:13:45.905Z,30.60
2022-08-05T17:16:33.054Z,30.40
2022-08-05T17:19:01.136Z,30.30
2022-08-05T17:21:35.745Z,30.00
2022-08-05T17:24:28.103Z,29.90
2022-08-05T17:26:57.777Z,29.90
2022-08-05T17:29:33.212Z,29.80
2022-08-05T17:32:11.902Z,29.90
2022-08-05T17:34:47.727Z,29.80
2022-08-05T17:37:37.704Z,29.60
2022-08-05T17:40:12.133Z,29.50
2022-08-05T17:42:41.626Z,29.30
2022-08-05T17:45:19.992Z,29.20
2022-08-05T17:47:52.972Z,29.10
2022-08-05T17:50:28.392Z,29.10
2022-08-05T17:53:02.237Z,28.90
2022-08-05T17:55:38.280Z,28.70
2022-08-05T17:58:09.666Z,28.30
2022-08-05T18:00:44.488Z,28.00
2022-08-05T18:03:28.024Z,27.80
2022-08-05T18:06:05.075Z,27.60
2022-08-05T18:08:34.032Z,27.50
2022-08-05T18:11:03.148Z,27.40
2022-08-05T18:13:36.734Z,27.60
2022-08-05T18:16:13.579Z,27.70
2022-08-05T18:18:41.568Z,27.60
2022-08-05T18:21:21.061Z,27.40
2022-08-05T18:23:53.636Z,27.40
2022-08-05T18:26:29.353Z,27.20
2022-08-05T18:28:59.744Z,27.00
2022-08-05T18:31:32.970Z,26.90
2022-08-05T18:34:03.772Z,26.90
2022-08-05T18:36:35.869Z,26.80
2022-08-05T18:39:09.855Z,26.80
2022-08-05T18:42:00.522Z,26.80
2022-08-05T18:44:35.225Z,26.70
2022-08-05T18:47:16.801Z,26.70
2022-08-05T18:50:03.009Z,26.70
2022-08-05T18:52:33.731Z,26.80
2022-08-05T18:55:05.075Z,26.50
2022-08-05T18:57:36.296Z,26.30
2022-08-05T19:00:20.281Z,26.30
2022-08-05T19:02:48.395Z,26.30
2022-08-05T19:06:06.023Z,26.30
2022-08-05T19:08:07.857Z,26.30
2022-08-05T19:10:41.265Z,26.10
2022-08-05T19:13:12.447Z,26.20
2022-08-05T19:15:59.090Z,26.10
2022-08-05T19:18:29.101Z,26.10
2022-08-05T19:20:56.860Z,26.00
2022-08-05T19:24:06.211Z,25.70
2022-08-05T19:26:12.974Z,25.80
2022-08-05T19:28:44.120Z,25.80
2022-08-05T19:31:18.008Z,25.60
2022-08-05T19:33:55.977Z,25.50
2022-08-05T19:36:29.379Z,25.50
2022-08-05T19:39:00.912Z,25.50
2022-08-05T19:41:58.137Z,25.40
2022-08-05T19:44:18.954Z,25.30
2022-08-05T19:46:46.774Z,25.20
2022-08-05T19:49:16.968Z,25.20
2022-08-05T19:52:08.445Z,25.30
2022-08-05T19:54:34.748Z,25.20
2022-08-05T19:57:08.531Z,25.30
2022-08-05T20:00:00.265Z,25.40
2022-08-05T20:02:27.553Z,25.50
2022-08-05T20:04:58.692Z,25.50
2022-08-05T20:07:45.963Z,25.40
2022-08-05T20:10:16.375Z,25.50
2022-08-05T20:12:46.240Z,25.20
2022-08-05T20:15:23.201Z,25.10
2022-08-05T20:18:10.491Z,25.00
2022-08-05T20:20:55.132Z,24.90
2022-08-05T20:23:23.408Z,24.80
2022-08-05T20:25:52.247Z,24.70
2022-08-05T20:28:21.097Z,24.70
2022-08-05T20:30:49.860Z,24.50
2022-08-05T20:33:17.410Z,24.50
2022-08-05T20:35:48.898Z,24.40
2022-08-05T20:38:26.914Z,24.40
2022-08-05T20:40:56.393Z,24.40
2022-08-05T20:43:58.260Z,24.40
2022-08-05T20:46:18.398Z,24.40
2022-08-05T20:48:52.684Z,24.40
2022-08-05T20:51:22.226Z,24.30
2022-08-05T20:53:56.965Z,24.30
2022-08-05T20:56:32.994Z,24.30
2022-08-05T20:59:14.366Z,24.20
2022-08-05T21:01:47.501Z,24.00
2022-08-05T21:04:18.817Z,23.70
2022-08-05T21:06:47.426Z,23.90
2022-08-05T21:09:16.225Z,23.90
2022-08-05T21:12:10.490Z,23.90
2022-08-05T21:14:34.824Z,24.00
2022-08-05T21:17:05.108Z,23.80
2022-08-05T21:19:47.085Z,23.80
2022-08-05T21:22:21.772Z,23.90
2022-08-05T21:24:51.989Z,23.70
2022-08-05T21:27:25.391Z,23.70
2022-08-05T21:29:56.422Z,23.60
2022-08-05T21:32:26.904Z,23.70
2022-08-05T21:35:17.238Z,23.80
2022-08-05T21:37:47.313Z,23.80
2022-08-05T21:40:16.508Z,23.70
2022-08-05T21:42:45.426Z,23.80
2022-08-05T21:45:24.152Z,23.80
2022-08-05T21:48:06.509Z,23.80
2022-08-05T21:50:37.292Z,23.70
2022-08-05T21:53:16.252Z,23.60
2022-08-05T21:56:05.369Z,23.50
2022-08-05T21:58:33.050Z,23.50
2022-08-05T22:01:00.733Z,23.50
2022-08-05T22:03:51.955Z,23.40
2022-08-05T22:06:22.763Z,23.40
2022-08-05T22:09:00.873Z,23.30
2022-08-05T22:11:35.022Z,23.30
2022-08-05T22:14:06.587Z,23.40
2022-08-05T22:16:57.934Z,23.50
2022-08-05T22:20:01.593Z,23.20
2022-08-05T22:22:15.741Z,23.20
2022-08-05T22:25:01.995Z,23.00
2022-08-05T22:28:10.362Z,23.00
2022-08-05T22:30:35.748Z,23.00
2022-08-05T22:33:15.445Z,23.00
2022-08-05T22:35:48.698Z,23.00
2022-08-05T22:38:17.288Z,23.20
2022-08-05T22:44:28.606Z,23.20
2022-08-05T22:50:37.020Z,23.20
2022-08-05T22:53:15.954Z,23.30
2022-08-05T22:55:56.930Z,23.10
2022-08-05T22:58:28.597Z,23.10
2022-08-05T23:00:57.052Z,23.10
2022-08-05T23:03:58.298Z,22.90
2022-08-05T23:06:12.118Z,23.20
2022-08-05T23:08:39.565Z,23.20
2022-08-05T23:11:07.222Z,23.20
2022-08-05T23:13:36.198Z,23.30
2022-08-05T23:16:04.709Z,23.30
2022-08-05T23:18:33.126Z,23.50
2022-08-05T23:21:00.537Z,23.50
2022-08-05T23:23:29.971Z,23.50
2022-08-05T23:26:01.178Z,23.60
2022-08-05T23:28:30.845Z,23.40
2022-08-05T23:31:15.942Z,23.50
2022-08-05T23:34:04.255Z,23.70
2022-08-05T23:36:39.996Z,23.80
2022-08-05T23:39:17.161Z,23.60
2022-08-05T23:41:51.608Z,23.70
2022-08-05T23:44:19.762Z,23.70
2022-08-05T23:46:50.037Z,23.70
2022-08-05T23:49:23.682Z,23.20
2022-08-05T23:52:11.104Z,23.30
2022-08-05T23:54:38.851Z,23.40
2022-08-05T23:57:06.702Z,23.60
